createdAt,value
2022-08-10T00:01:53.614Z,55.10
2022-08-10T00:04:25.395Z,55.79
2022-08-10T00:06:55.132Z,54.54
2022-08-10T00:09:24.812Z,55.61
2022-08-10T00:11:52.796Z,55.86
2022-08-10T00:14:22.267Z,56.75
2022-08-10T00:16:50.587Z,55.87
2022-08-10T00:19:18.897Z,55.43
2022-08-10T00:21:47.755Z,55.14
2022-08-10T00:24:16.397Z,55.87
2022-08-10T00:28:01.009Z,55.83
2022-08-10T00:29:34.078Z,56.66
2022-08-10T00:32:02.103Z,56.11
2022-08-10T00:34:31.159Z,55.96
2022-08-10T00:37:00.218Z,56.59
2022-08-10T00:39:29.356Z,56.24
2022-08-10T00:42:02.315Z,55.96
2022-08-10T00:44:39.379Z,57.06
2022-08-10T00:47:35.908Z,56.62
2022-08-10T00:49:56.553Z,57.14
2022-08-10T00:52:25.266Z,56.82
2022-08-10T00:54:53.553Z,56.54
2022-08-10T00:57:22.135Z,57.17
2022-08-10T00:59:58.955Z,56.49
2022-08-10T01:02:29.863Z,57.01
2022-08-10T01:05:01.675Z,56.97
2022-08-10T01:07:43.854Z,57.87
2022-08-10T01:10:23.923Z,58.42
2022-08-10T01:12:57.850Z,58.04
2022-08-10T01:15:32.214Z,57.89
2022-08-10T01:18:05.740Z,57.58
2022-08-10T01:20:39.915Z,58.52
2022-08-10T01:23:44.153Z,58.12
2022-08-10T01:26:37.412Z,58.35
2022-08-10T01:29:53.559Z,59.19
2022-08-10T01:32:32.404Z,59.04
2022-08-10T01:35:12.075Z,58.98
2022-08-10T01:37:51.702Z,59.70
2022-08-10T01:40:25.724Z,59.80
2022-08-10T01:42:55.765Z,59.77
2022-08-10T01:45:29.829Z,59.68
2022-08-10T01:48:32.302Z,60.23
2022-08-10T01:51:15.509Z,60.72
2022-08-10T01:53:51.847Z,61.15
2022-08-10T01:56:22.467Z,60.55
2022-08-10T01:58:55.039Z,60.81
2022-08-10T02:01:26.606Z,60.60
2022-08-10T02:04:04.590Z,60.59
2022-08-10T02:06:36.753Z,60.96
2022-08-10T02:09:07.568Z,61.27
2022-08-10T02:12:06.377Z,62.10
2022-08-10T02:14:32.929Z,61.33
2022-08-10T02:17:03.084Z,61.69
2022-08-10T02:19:36.568Z,61.27
2022-08-10T02:22:37.565Z,61.67
2022-08-10T02:24:55.681Z,62.06
2022-08-10T02:27:26.078Z,62.46
2022-08-10T02:29:55.047Z,61.86
2022-08-10T02:32:36.314Z,62.02
2022-08-10T02:35:21.936Z,62.60
2022-08-10T02:37:52.224Z,62.92
2022-08-10T02:45:14.590Z,63.13
2022-08-10T02:45:18.088Z,62.68
2022-08-10T02:46:14.144Z,63.19
2022-08-10T02:48:48.222Z,63.64
2022-08-10T02:52:07.105Z,63.25
2022-08-10T02:54:15.714Z,63.92
2022-08-10T02:56:52.630Z,63.88
2022-08-10T02:59:24.872Z,64.17
2022-08-10T03:01:57.078Z,63.98
2022-08-10T03:04:56.189Z,64.51
2022-08-10T03:07:44.309Z,64.35
2022-08-10T03:10:14.946Z,64.97
2022-08-10T03:12:44.405Z,65.04
2022-08-10T03:15:15.586Z,64.58
2022-08-10T03:17:57.866Z,64.91
2022-08-10T03:20:38.467Z,65.08
2022-08-10T03:23:12.475Z,64.73
2022-08-10T03:25:40.920Z,65.74
2022-08-10T03:28:20.881Z,65.36
2022-08-10T03:30:50.310Z,64.95
2022-08-10T03:33:19.088Z,65.34
2022-08-10T03:36:42.532Z,65.38
2022-08-10T03:38:36.777Z,65.26
2022-08-10T03:41:06.278Z,65.75
2022-08-10T03:43:35.376Z,66.15
2022-08-10T03:46:09.491Z,66.77
2022-08-10T03:48:49.455Z,66.99
2022-08-10T03:51:19.806Z,66.70
2022-08-10T03:54:05.248Z,65.65
2022-08-10T03:56:37.540Z,66.08
2022-08-10T03:59:07.074Z,66.60
2022-08-10T04:02:47.140Z,66.28
2022-08-10T04:04:25.970Z,66.81
2022-08-10T04:06:55.996Z,66.90
2022-08-10T04:09:43.048Z,67.17
2022-08-10T04:12:16.300Z,66.65
2022-08-10T04:14:50.007Z,65.96
2022-08-10T04:18:03.876Z,65.67
2022-08-10T04:20:12.968Z,65.97
2022-08-10T04:22:42.546Z,65.98
2022-08-10T04:25:14.145Z,66.51
2022-08-10T04:27:43.123Z,66.36
2022-08-10T04:30:11.893Z,66.00
2022-08-10T04:32:41.851Z,66.18
2022-08-10T04:35:11.741Z,66.40
2022-08-10T04:37:47.150Z,66.99
2022-08-10T04:40:28.891Z,66.74
2022-08-10T04:43:01.409Z,67.23
2022-08-10T04:45:48.971Z,66.22
2022-08-10T04:48:41.388Z,65.80
2022-08-10T04:51:18.160Z,67.68
2022-08-10T04:54:02.698Z,66.90
2022-08-10T04:56:36.669Z,66.28
2022-08-10T04:59:06.266Z,66.85
2022-08-10T05:02:12.099Z,66.96
2022-08-10T05:04:36.351Z,66.66
2022-08-10T05:07:10.702Z,66.78
2022-08-10T05:10:03.908Z,66.01
2022-08-10T05:12:29.435Z,66.69
2022-08-10T05:14:57.638Z,65.91
2022-08-10T05:17:25.721Z,66.71
2022-08-10T05:20:04.201Z,65.57
2022-08-10T05:22:35.686Z,68.45
2022-08-10T05:25:04.392Z,69.33
2022-08-10T05:27:34.019Z,70.12
2022-08-10T05:30:03.654Z,69.61
2022-08-10T05:32:32.692Z,71.68
2022-08-10T05:35:20.743Z,71.25
2022-08-10T05:38:13.275Z,67.74
2022-08-10T05:40:39.235Z,67.08
2022-08-10T05:43:08.720Z,70.01
2022-08-10T05:46:18.019Z,66.17
2022-08-10T05:48:58.223Z,65.15
2022-08-10T05:51:13.584Z,64.33
2022-08-10T05:54:01.557Z,63.34
2022-08-10T05:56:55.249Z,63.20
2022-08-10T06:00:31.185Z,63.66
2022-08-10T06:02:33.670Z,63.92
2022-08-10T06:04:59.793Z,65.84
2022-08-10T06:07:29.801Z,65.99
2022-08-10T06:10:00.392Z,65.41
2022-08-10T06:12:31.462Z,65.70
2022-08-10T06:15:06.035Z,64.16
2022-08-10T06:17:39.403Z,65.19
2022-08-10T06:20:08.367Z,64.24
2022-08-10T06:22:36.802Z,67.14
2022-08-10T06:26:08.454Z,63.46
2022-08-10T06:27:56.131Z,62.94
2022-08-10T06:30:27.113Z,62.54
2022-08-10T06:32:58.149Z,61.88
2022-08-10T06:35:28.867Z,62.12
2022-08-10T06:37:58.509Z,61.39
2022-08-10T06:40:28.734Z,61.10
2022-08-10T06:42:59.784Z,60.42
2022-08-10T06:45:34.724Z,61.36
2022-08-10T06:48:05.174Z,60.33
2022-08-10T06:50:55.975Z,60.53
2022-08-10T06:53:52.878Z,60.66
2022-08-10T06:56:36.613Z,60.54
2022-08-10T06:59:13.260Z,59.51
2022-08-10T07:01:58.618Z,59.88
2022-08-10T07:04:32.743Z,60.92
2022-08-10T07:07:05.069Z,59.64
2022-08-10T07:09:36.346Z,60.19
2022-08-10T07:12:08.575Z,60.81
2022-08-10T07:14:41.112Z,58.92
2022-08-10T07:17:15.730Z,59.84
2022-08-10T07:19:49.920Z,59.61
2022-08-10T07:23:26.911Z,59.16
2022-08-10T07:25:13.353Z,58.35
2022-08-10T07:27:59.617Z,58.32
2022-08-10T07:30:30.577Z,58.66
2022-08-10T07:33:01.458Z,60.63
2022-08-10T07:35:36.423Z,57.46
2022-08-10T07:38:07.407Z,57.14
2022-08-10T07:40:36.026Z,58.35
2022-08-10T07:43:04.558Z,58.43
2022-08-10T07:45:36.541Z,56.38
2022-08-10T07:48:10.746Z,55.96
2022-08-10T07:50:40.989Z,55.14
2022-08-10T07:53:13.950Z,54.28
2022-08-10T07:56:04.831Z,53.44
2022-08-10T07:58:35.241Z,57.21
2022-08-10T08:01:03.488Z,53.61
2022-08-10T08:03:34.870Z,52.24
2022-08-10T08:06:12.139Z,52.20
2022-08-10T08:08:43.781Z,52.33
2022-08-10T08:11:25.799Z,56.24
2022-08-10T08:13:55.661Z,49.42
2022-08-10T08:16:24.987Z,48.60
2022-08-10T08:24:07.522Z,47.55
2022-08-10T08:24:37.278Z,47.11
2022-08-10T08:27:07.705Z,47.61
2022-08-10T08:29:38.401Z,48.71
2022-08-10T08:32:08.089Z,48.03
2022-08-10T08:34:40.138Z,49.29
2022-08-10T08:37:10.380Z,46.75
2022-08-10T08:39:40.294Z,47.10
2022-08-10T08:42:19.479Z,46.24
2022-08-10T08:45:04.463Z,45.34
2022-08-10T08:48:04.961Z,44.59
2022-08-10T08:50:48.478Z,43.53
2022-08-10T08:54:02.848Z,43.53
2022-08-10T08:56:32.279Z,43.80
2022-08-10T08:59:19.127Z,45.01
2022-08-10T09:02:01.849Z,45.32
2022-08-10T09:04:48.296Z,41.77
2022-08-10T09:08:00.809Z,42.33
2022-08-10T09:10:38.243Z,42.82
2022-08-10T09:13:14.859Z,43.63
2022-08-10T09:15:52.439Z,41.02
2022-08-10T09:18:25.015Z,39.54
2022-08-10T09:21:01.940Z,37.53
2022-08-10T09:24:05.081Z,36.14
2022-08-10T09:26:36.749Z,34.51
2022-08-10T09:29:13.263Z,35.82
2022-08-10T09:33:06.179Z,33.78
2022-08-10T09:36:23.684Z,31.34
2022-08-10T09:38:01.053Z,29.05
2022-08-10T09:40:59.482Z,30.08
2022-08-10T09:43:37.378Z,28.39
2022-08-10T09:46:14.536Z,29.48
2022-08-10T09:48:52.539Z,29.72
2022-08-10T09:51:48.210Z,30.96
2022-08-10T09:54:31.221Z,28.40
2022-08-10T10:00:08.653Z,26.68
2022-08-10T10:02:43.410Z,28.67
2022-08-10T10:05:30.899Z,30.62
2022-08-10T10:08:08.402Z,27.89
2022-08-10T10:10:47.397Z,29.23
2022-08-10T10:13:50.059Z,27.37
2022-08-10T10:16:29.179Z,29.08
2022-08-10T10:19:08.965Z,27.94
2022-08-10T10:21:55.765Z,26.43
2022-08-10T10:24:34.398Z,27.93
2022-08-10T10:27:16.306Z,28.16
2022-08-10T10:29:59.505Z,28.09
2022-08-10T10:32:40.377Z,26.41
2022-08-10T10:35:20.894Z,27.11
2022-08-10T10:38:02.603Z,25.73
2022-08-10T10:40:38.727Z,27.66
2022-08-10T10:43:15.653Z,25.73
2022-08-10T10:45:58.962Z,25.74
2022-08-10T10:48:29.832Z,24.69
2022-08-10T10:51:10.483Z,26.08
2022-08-10T10:53:45.180Z,23.97
2022-08-10T10:56:21.548Z,25.77
2022-08-10T10:59:00.007Z,22.95
2022-08-10T11:01:39.460Z,25.33
2022-08-10T11:04:17.337Z,25.77
2022-08-10T11:06:58.249Z,24.47
2022-08-10T11:10:07.011Z,23.49
2022-08-10T11:12:29.715Z,27.65
2022-08-10T11:15:05.649Z,27.57
2022-08-10T11:17:41.580Z,27.93
2022-08-10T11:20:16.808Z,26.15
2022-08-10T11:22:51.881Z,27.91
2022-08-10T11:25:27.584Z,27.34
2022-08-10T11:28:11.843Z,26.08
2022-08-10T11:30:46.929Z,25.77
2022-08-10T11:33:24.366Z,25.37
2022-08-10T11:36:04.507Z,26.46
2022-08-10T11:39:04.113Z,26.02
2022-08-10T11:42:11.752Z,26.30
2022-08-10T11:44:33.132Z,25.85
2022-08-10T11:47:05.913Z,26.34
2022-08-10T11:49:46.417Z,25.82
2022-08-10T11:52:20.904Z,24.13
2022-08-10T11:54:54.473Z,23.98
2022-08-10T11:57:53.243Z,23.70
2022-08-10T12:00:17.553Z,25.71
2022-08-10T12:02:50.248Z,23.75
2022-08-10T12:05:21.077Z,25.64
2022-08-10T12:10:07.124Z,24.63
2022-08-10T12:10:42.909Z,23.82
2022-08-10T12:13:16.357Z,23.81
2022-08-10T12:15:52.349Z,26.05
2022-08-10T12:18:28.073Z,25.47
2022-08-10T12:21:01.949Z,25.03
2022-08-10T12:23:39.309Z,25.32
2022-08-10T12:26:13.912Z,23.98
2022-08-10T12:28:50.263Z,23.13
2022-08-10T12:31:23.982Z,25.57
2022-08-10T12:34:05.407Z,24.18
2022-08-10T12:36:41.495Z,25.83
2022-08-10T12:39:16.535Z,24.65
2022-08-10T12:41:51.003Z,26.45
2022-08-10T12:44:41.367Z,23.96
2022-08-10T12:47:21.701Z,24.54
2022-08-10T12:50:31.426Z,23.73
2022-08-10T12:53:07.601Z,24.24
2022-08-10T12:55:39.324Z,23.39
2022-08-10T12:58:59.043Z,24.75
2022-08-10T13:01:16.178Z,24.90
2022-08-10T13:04:22.950Z,23.66
2022-08-10T13:06:41.622Z,23.60
2022-08-10T13:09:10.126Z,23.58
2022-08-10T13:12:35.041Z,24.13
2022-08-10T13:14:42.242Z,23.43
2022-08-10T13:17:10.926Z,23.06
2022-08-10T13:19:54.807Z,23.59
2022-08-10T13:22:30.276Z,24.77
2022-08-10T13:25:04.606Z,23.64
2022-08-10T13:28:00.736Z,25.32
2022-08-10T13:30:33.695Z,23.29
2022-08-10T13:33:08.626Z,23.96
2022-08-10T13:35:37.518Z,25.76
2022-08-10T13:38:08.217Z,23.67
2022-08-10T13:40:39.573Z,23.72
2022-08-10T13:43:09.800Z,23.60
2022-08-10T13:45:49.231Z,22.99
2022-08-10T13:48:21.633Z,22.77
2022-08-10T13:50:52.722Z,24.08
2022-08-10T13:53:23.627Z,23.78
2022-08-10T13:55:57.019Z,23.39
2022-08-10T13:58:29.969Z,24.78
2022-08-10T14:00:59.962Z,24.87
2022-08-10T14:03:29.864Z,26.01
2022-08-10T14:05:59.685Z,24.36
2022-08-10T14:08:32.413Z,23.24
2022-08-10T14:11:11.225Z,26.09
2022-08-10T14:13:45.107Z,24.70
2022-08-10T14:16:14.407Z,23.29
2022-08-10T14:18:45.802Z,23.71
2022-08-10T14:21:15.055Z,23.99
2022-08-10T14:23:52.720Z,23.31
2022-08-10T14:26:26.309Z,24.61
2022-08-10T14:28:58.304Z,22.70
2022-08-10T14:31:34.513Z,25.00
2022-08-10T14:34:05.808Z,25.48
2022-08-10T14:36:43.293Z,25.66
2022-08-10T14:39:15.935Z,25.05
2022-08-10T14:42:03.001Z,24.77
2022-08-10T14:44:46.228Z,26.04
2022-08-10T14:47:54.167Z,25.67
2022-08-10T14:50:06.008Z,24.49
2022-08-10T14:52:44.038Z,23.40
2022-08-10T14:55:19.414Z,24.59
2022-08-10T14:58:19.318Z,24.28
2022-08-10T15:00:43.144Z,25.34
2022-08-10T15:04:01.920Z,26.59
2022-08-10T15:06:09.254Z,22.98
2022-08-10T15:08:47.500Z,22.77
2022-08-10T15:12:12.975Z,22.49
2022-08-10T15:14:34.142Z,23.09
2022-08-10T15:16:58.328Z,22.60
2022-08-10T15:20:01.492Z,23.01
2022-08-10T15:22:47.398Z,25.06
2022-08-10T15:25:17.864Z,22.73
2022-08-10T15:27:54.021Z,22.24
2022-08-10T15:30:32.050Z,26.38
2022-08-10T15:33:57.429Z,24.38
2022-08-10T15:36:39.806Z,23.30
2022-08-10T15:39:14.121Z,23.06
2022-08-10T15:42:03.639Z,24.78
2022-08-10T15:44:36.643Z,23.67
2022-08-10T15:47:10.687Z,23.02
2022-08-10T15:49:45.470Z,23.01
2022-08-10T15:52:39.362Z,24.97
2022-08-10T15:55:42.363Z,25.27
2022-08-10T15:58:06.781Z,24.46
2022-08-10T16:00:39.244Z,24.80
2022-08-10T16:03:15.861Z,23.11
2022-08-10T16:06:01.722Z,23.13
2022-08-10T16:08:55.943Z,23.13
2022-08-10T16:11:37.411Z,24.09
2022-08-10T16:14:14.589Z,23.56
2022-08-10T16:16:47.090Z,23.51
2022-08-10T16:19:25.082Z,23.47
2022-08-10T16:21:59.868Z,23.97
2022-08-10T16:24:33.679Z,24.64
2022-08-10T16:27:06.480Z,24.36
2022-08-10T16:29:55.804Z,23.92
2022-08-10T16:32:26.655Z,24.03
2022-08-10T16:34:57.562Z,24.44
2022-08-10T16:37:57.881Z,24.31
2022-08-10T16:40:26.837Z,23.89
2022-08-10T16:42:56.236Z,24.42
2022-08-10T16:45:31.754Z,25.53
2022-08-10T16:48:00.522Z,24.27
2022-08-10T16:50:41.443Z,26.27
2022-08-10T16:53:15.582Z,26.14
2022-08-10T16:55:50.608Z,26.00
2022-08-10T16:58:27.255Z,26.27
2022-08-10T17:01:01.770Z,25.10
2022-08-10T17:04:08.303Z,26.94
2022-08-10T17:06:24.841Z,26.61
2022-08-10T17:08:56.557Z,27.46
2022-08-10T17:11:30.845Z,24.90
2022-08-10T17:14:00.158Z,24.85
2022-08-10T17:16:35.583Z,25.06
2022-08-10T17:19:04.664Z,26.55
2022-08-10T17:21:50.992Z,26.80
2022-08-10T17:24:23.786Z,27.23
2022-08-10T17:26:52.849Z,26.72
2022-08-10T17:29:59.098Z,27.09
2022-08-10T17:32:20.736Z,28.05
2022-08-10T17:34:53.997Z,28.89
2022-08-10T17:37:27.537Z,28.63
2022-08-10T17:39:59.821Z,27.24
2022-08-10T17:42:28.674Z,29.12
2022-08-10T17:44:58.033Z,28.34
2022-08-10T17:47:28.071Z,28.37
2022-08-10T17:49:57.972Z,27.85
2022-08-10T17:52:31.701Z,27.57
2022-08-10T17:55:04.179Z,28.33
2022-08-10T17:57:37.721Z,29.05
2022-08-10T18:00:08.112Z,29.03
2022-08-10T18:02:40.225Z,29.23
2022-08-10T18:05:10.919Z,30.03
2022-08-10T18:07:46.611Z,30.62
2022-08-10T18:10:18.842Z,30.11
2022-08-10T18:12:50.275Z,29.32
2022-08-10T18:15:22.065Z,30.29
2022-08-10T18:17:58.329Z,29.88
2022-08-10T18:20:33.806Z,30.63
2022-08-10T18:23:04.502Z,30.52
2022-08-10T18:25:35.999Z,30.44
2022-08-10T18:28:06.668Z,29.49
2022-08-10T18:30:45.433Z,30.66
2022-08-10T18:33:15.429Z,30.86
2022-08-10T18:35:46.137Z,31.20
2022-08-10T18:38:17.248Z,31.95
2022-08-10T18:40:52.712Z,32.09
2022-08-10T18:44:09.859Z,31.68
2022-08-10T18:46:17.916Z,30.51
2022-08-10T18:48:53.110Z,30.60
2022-08-10T18:51:26.314Z,31.13
2022-08-10T18:53:58.626Z,31.11
2022-08-10T18:56:39.866Z,31.42
2022-08-10T18:59:21.967Z,31.06
2022-08-10T19:02:08.708Z,32.74
2022-08-10T19:04:51.165Z,32.13
2022-08-10T19:07:46.458Z,32.22
2022-08-10T19:10:29.102Z,32.98
2022-08-10T19:13:05.376Z,32.22
2022-08-10T19:15:42.192Z,33.37
2022-08-10T19:18:23.988Z,33.61
2022-08-10T19:21:02.025Z,35.12
2022-08-10T19:23:45.044Z,33.79
2022-08-10T19:26:44.990Z,33.69
2022-08-10T19:30:09.984Z,33.41
2022-08-10T19:32:28.798Z,34.12
2022-08-10T19:35:05.119Z,35.38
2022-08-10T19:37:42.993Z,34.08
2022-08-10T19:40:44.551Z,34.58
2022-08-10T19:44:00.807Z,33.86
2022-08-10T19:46:18.902Z,33.95
2022-08-10T19:48:57.009Z,34.41
2022-08-10T19:51:29.789Z,35.08
2022-08-10T19:54:03.891Z,34.15
2022-08-10T19:56:44.772Z,35.27
2022-08-10T20:00:16.346Z,35.39
2022-08-10T20:02:25.808Z,35.48
2022-08-10T20:05:02.661Z,35.46
2022-08-10T20:07:37.840Z,35.72
2022-08-10T20:10:14.180Z,35.65
2022-08-10T20:12:51.367Z,37.23
2022-08-10T20:15:30.413Z,36.47
2022-08-10T20:18:06.809Z,37.19
2022-08-10T20:20:49.501Z,37.30
2022-08-10T20:23:20.931Z,37.61
2022-08-10T20:25:56.695Z,38.18
2022-08-10T20:28:35.373Z,38.38
2022-08-10T20:31:17.242Z,38.49
2022-08-10T20:33:57.412Z,38.96
2022-08-10T20:36:32.273Z,40.05
2022-08-10T20:39:13.109Z,39.95
2022-08-10T20:41:56.089Z,39.83
2022-08-10T20:44:44.688Z,40.24
2022-08-10T20:47:20.715Z,40.34
2022-08-10T20:49:58.551Z,40.92
2022-08-10T20:52:27.153Z,40.81
2022-08-10T20:54:59.134Z,40.75
2022-08-10T20:58:02.722Z,40.87
2022-08-10T21:00:50.585Z,41.32
2022-08-10T21:03:44.059Z,41.40
2022-08-10T21:06:43.271Z,41.04
2022-08-10T21:09:25.569Z,40.89
2022-08-10T21:12:18.699Z,42.30
2022-08-10T21:14:55.281Z,42.26
2022-08-10T21:17:48.427Z,41.84
2022-08-10T21:20:35.982Z,41.92
2022-08-10T21:23:08.633Z,42.55
2022-08-10T21:25:45.629Z,41.68
2022-08-10T21:28:38.552Z,41.39
2022-08-10T21:31:22.069Z,41.58
2022-08-10T21:34:06.389Z,41.73
2022-08-10T21:36:41.572Z,41.29
2022-08-10T21:39:19.848Z,41.23
2022-08-10T21:42:14.612Z,40.90
2022-08-10T21:45:11.498Z,41.53
2022-08-10T21:48:17.306Z,40.87
2022-08-10T21:51:16.633Z,40.80
2022-08-10T21:54:20.412Z,41.13
2022-08-10T21:57:21.310Z,40.81
2022-08-10T22:00:11.949Z,41.12
2022-08-10T22:02:58.984Z,42.56
2022-08-10T22:05:47.843Z,41.38
2022-08-10T22:08:37.264Z,41.17
2022-08-10T22:11:27.723Z,41.40
2022-08-10T22:14:14.995Z,40.58
2022-08-10T22:17:04.745Z,41.10
2022-08-10T22:19:54.021Z,41.61
2022-08-10T22:22:56.062Z,41.21
2022-08-10T22:26:00.465Z,40.71
2022-08-10T22:28:48.748Z,42.09
2022-08-10T22:31:51.696Z,41.01
2022-08-10T22:35:04.317Z,41.10
2022-08-10T22:38:07.971Z,40.92
2022-08-10T22:40:54.044Z,42.17
2022-08-10T22:43:45.352Z,41.24
2022-08-10T22:46:37.331Z,41.00
2022-08-10T22:49:04.951Z,41.11
2022-08-10T22:51:51.977Z,42.43
2022-08-10T22:54:41.623Z,42.52
2022-08-10T22:57:31.800Z,41.89
2022-08-10T23:00:00.267Z,42.32
2022-08-10T23:02:33.648Z,41.25
2022-08-10T23:05:09.154Z,42.69
2022-08-10T23:07:46.340Z,42.22
2022-08-10T23:10:16.132Z,43.54
2022-08-10T23:12:50.863Z,42.21
2022-08-10T23:15:46.359Z,41.84
2022-08-10T23:18:39.500Z,42.12
2022-08-10T23:21:13.506Z,42.36
2022-08-10T23:23:43.187Z,42.88
2022-08-10T23:26:15.266Z,43.07
2022-08-10T23:29:03.245Z,43.00
2022-08-10T23:31:54.312Z,42.18
2022-08-10T23:34:27.641Z,43.85
2022-08-10T23:36:58.774Z,42.54
2022-08-10T23:39:35.849Z,43.56
2022-08-10T23:42:07.913Z,43.26
2022-08-10T23:44:39.110Z,42.37
2022-08-10T23:47:09.493Z,44.18
2022-08-10T23:49:40.527Z,42.96
2022-08-10T23:52:14.272Z,43.58
2022-08-10T23:54:45.659Z,44.00
2022-08-10T23:57:18.098Z,44.11
2022-08-10T23:59:52.213Z,42.01
